sensor_id;sensor_type;location;lat;lon;timestamp;P1;durP1;ratioP1;P2;durP2;ratioP2
6053;SDS011;3055;50.886;14.814;2022-07-19T00:02:27;3.30;;;2.90;;
6053;SDS011;3055;50.886;14.814;2022-07-19T00:04:54;3.47;;;3.13;;
6053;SDS011;3055;50.886;14.814;2022-07-19T00:07:21;5.73;;;3.23;;
6053;SDS011;3055;50.886;14.814;2022-07-19T00:09:48;3.00;;;2.67;;
6053;SDS011;3055;50.886;14.814;2022-07-19T00:12:15;3.77;;;2.93;;
6053;SDS011;3055;50.886;14.814;2022-07-19T00:14:42;3.33;;;3.03;;
6053;SDS011;3055;50.886;14.814;2022-07-19T00:17:10;6.50;;;2.60;;
6053;SDS011;3055;50.886;14.814;2022-07-19T00:19:37;3.47;;;3.17;;
6053;SDS011;3055;50.886;14.814;2022-07-19T00:22:04;4.27;;;2.80;;
6053;SDS011;3055;50.886;14.814;2022-07-19T00:24:32;4.70;;;2.93;;
6053;SDS011;3055;50.886;14.814;2022-07-19T00:26:59;3.00;;;2.67;;
6053;SDS011;3055;50.886;14.814;2022-07-19T00:29:26;3.17;;;2.87;;
6053;SDS011;3055;50.886;14.814;2022-07-19T00:31:52;3.07;;;2.87;;
6053;SDS011;3055;50.886;14.814;2022-07-19T00:34:21;3.27;;;2.97;;
6053;SDS011;3055;50.886;14.814;2022-07-19T00:36:48;3.40;;;2.80;;
6053;SDS011;3055;50.886;14.814;2022-07-19T00:39:15;6.37;;;3.67;;
6053;SDS011;3055;50.886;14.814;2022-07-19T00:41:42;3.37;;;3.07;;
6053;SDS011;3055;50.886;14.814;2022-07-19T00:44:10;4.20;;;3.13;;
6053;SDS011;3055;50.886;14.814;2022-07-19T00:46:37;2.93;;;2.50;;
6053;SDS011;3055;50.886;14.814;2022-07-19T00:49:05;3.60;;;2.87;;
6053;SDS011;3055;50.886;14.814;2022-07-19T00:51:34;3.17;;;2.70;;
6053;SDS011;3055;50.886;14.814;2022-07-19T00:54:05;3.60;;;2.83;;
6053;SDS011;3055;50.886;14.814;2022-07-19T00:56:33;3.50;;;2.70;;
6053;SDS011;3055;50.886;14.814;2022-07-19T00:59:02;3.83;;;2.70;;
6053;SDS011;3055;50.886;14.814;2022-07-19T01:01:30;3.63;;;3.23;;
6053;SDS011;3055;50.886;14.814;2022-07-19T01:03:57;3.57;;;3.10;;
6053;SDS011;3055;50.886;14.814;2022-07-19T01:06:24;2.50;;;2.30;;
6053;SDS011;3055;50.886;14.814;2022-07-19T01:08:54;3.53;;;3.20;;
6053;SDS011;3055;50.886;14.814;2022-07-19T01:11:21;4.07;;;2.93;;
6053;SDS011;3055;50.886;14.814;2022-07-19T01:13:48;8.77;;;3.30;;
6053;SDS011;3055;50.886;14.814;2022-07-19T01:16:15;4.60;;;3.33;;
6053;SDS011;3055;50.886;14.814;2022-07-19T01:18:42;3.50;;;3.03;;
6053;SDS011;3055;50.886;14.814;2022-07-19T01:21:17;5.60;;;3.10;;
6053;SDS011;3055;50.886;14.814;2022-07-19T01:23:45;3.83;;;2.90;;
6053;SDS011;3055;50.886;14.814;2022-07-19T01:26:12;4.47;;;2.77;;
6053;SDS011;3055;50.886;14.814;2022-07-19T01:28:39;4.07;;;3.10;;
6053;SDS011;3055;50.886;14.814;2022-07-19T01:31:06;3.23;;;2.93;;
6053;SDS011;3055;50.886;14.814;2022-07-19T01:33:37;4.73;;;2.93;;
6053;SDS011;3055;50.886;14.814;2022-07-19T01:36:05;4.97;;;3.27;;
6053;SDS011;3055;50.886;14.814;2022-07-19T01:38:33;3.40;;;2.80;;
6053;SDS011;3055;50.886;14.814;2022-07-19T01:41:00;4.33;;;3.17;;
6053;SDS011;3055;50.886;14.814;2022-07-19T01:43:27;4.10;;;2.80;;
6053;SDS011;3055;50.886;14.814;2022-07-19T01:45:54;3.83;;;3.37;;
6053;SDS011;3055;50.886;14.814;2022-07-19T01:48:21;3.77;;;3.00;;
6053;SDS011;3055;50.886;14.814;2022-07-19T01:50:48;5.23;;;3.40;;
6053;SDS011;3055;50.886;14.814;2022-07-19T01:53:15;5.17;;;3.23;;
6053;SDS011;3055;50.886;14.814;2022-07-19T01:55:43;3.90;;;3.10;;
6053;SDS011;3055;50.886;14.814;2022-07-19T01:58:10;3.00;;;2.80;;
6053;SDS011;3055;50.886;14.814;2022-07-19T02:00:37;3.90;;;2.87;;
6053;SDS011;3055;50.886;14.814;2022-07-19T02:03:04;3.77;;;2.77;;
6053;SDS011;3055;50.886;14.814;2022-07-19T02:05:31;3.80;;;3.10;;
6053;SDS011;3055;50.886;14.814;2022-07-19T02:07:59;4.63;;;3.07;;
6053;SDS011;3055;50.886;14.814;2022-07-19T02:10:26;4.60;;;2.70;;
6053;SDS011;3055;50.886;14.814;2022-07-19T02:12:55;5.03;;;2.87;;
6053;SDS011;3055;50.886;14.814;2022-07-19T02:15:22;4.47;;;2.97;;
6053;SDS011;3055;50.886;14.814;2022-07-19T02:17:49;4.07;;;3.43;;
6053;SDS011;3055;50.886;14.814;2022-07-19T02:20:16;3.60;;;2.57;;
6053;SDS011;3055;50.886;14.814;2022-07-19T02:22:43;6.70;;;3.40;;
6053;SDS011;3055;50.886;14.814;2022-07-19T02:25:10;4.23;;;2.97;;
6053;SDS011;3055;50.886;14.814;2022-07-19T02:27:37;3.77;;;3.00;;
6053;SDS011;3055;50.886;14.814;2022-07-19T02:30:06;3.77;;;3.20;;
6053;SDS011;3055;50.886;14.814;2022-07-19T02:32:34;2.97;;;2.67;;
6053;SDS011;3055;50.886;14.814;2022-07-19T02:35:01;3.60;;;3.13;;
6053;SDS011;3055;50.886;14.814;2022-07-19T02:37:28;3.50;;;3.20;;
6053;SDS011;3055;50.886;14.814;2022-07-19T02:39:55;5.57;;;3.20;;
6053;SDS011;3055;50.886;14.814;2022-07-19T02:42:21;3.77;;;3.17;;
6053;SDS011;3055;50.886;14.814;2022-07-19T02:44:49;3.43;;;2.63;;
6053;SDS011;3055;50.886;14.814;2022-07-19T02:47:17;4.37;;;2.80;;
6053;SDS011;3055;50.886;14.814;2022-07-19T02:49:44;4.03;;;3.00;;
6053;SDS011;3055;50.886;14.814;2022-07-19T02:52:11;3.40;;;3.10;;
6053;SDS011;3055;50.886;14.814;2022-07-19T02:54:38;3.23;;;2.93;;
6053;SDS011;3055;50.886;14.814;2022-07-19T02:57:05;3.77;;;2.87;;
6053;SDS011;3055;50.886;14.814;2022-07-19T02:59:32;3.63;;;3.17;;
6053;SDS011;3055;50.886;14.814;2022-07-19T03:01:59;3.80;;;3.20;;
6053;SDS011;3055;50.886;14.814;2022-07-19T03:04:27;3.87;;;3.37;;
6053;SDS011;3055;50.886;14.814;2022-07-19T03:06:54;3.90;;;3.10;;
6053;SDS011;3055;50.886;14.814;2022-07-19T03:09:21;3.47;;;3.17;;
6053;SDS011;3055;50.886;14.814;2022-07-19T03:11:48;3.87;;;2.87;;
6053;SDS011;3055;50.886;14.814;2022-07-19T03:14:15;5.03;;;3.07;;
6053;SDS011;3055;50.886;14.814;2022-07-19T03:16:41;4.57;;;3.40;;
6053;SDS011;3055;50.886;14.814;2022-07-19T03:19:09;3.67;;;3.37;;
6053;SDS011;3055;50.886;14.814;2022-07-19T03:21:37;6.23;;;3.20;;
6053;SDS011;3055;50.886;14.814;2022-07-19T03:24:04;3.93;;;2.87;;
6053;SDS011;3055;50.886;14.814;2022-07-19T03:26:31;4.03;;;3.10;;
6053;SDS011;3055;50.886;14.814;2022-07-19T03:28:58;4.13;;;3.77;;
6053;SDS011;3055;50.886;14.814;2022-07-19T03:31:25;3.90;;;3.50;;
6053;SDS011;3055;50.886;14.814;2022-07-19T03:33:52;6.20;;;3.47;;
6053;SDS011;3055;50.886;14.814;2022-07-19T03:36:19;4.10;;;3.53;;
6053;SDS011;3055;50.886;14.814;2022-07-19T03:38:48;4.53;;;3.17;;
6053;SDS011;3055;50.886;14.814;2022-07-19T03:41:15;4.30;;;3.23;;
6053;SDS011;3055;50.886;14.814;2022-07-19T03:43:41;4.00;;;3.00;;
6053;SDS011;3055;50.886;14.814;2022-07-19T03:46:08;3.93;;;3.43;;
6053;SDS011;3055;50.886;14.814;2022-07-19T03:48:35;4.00;;;3.60;;
6053;SDS011;3055;50.886;14.814;2022-07-19T03:51:02;8.13;;;3.53;;
6053;SDS011;3055;50.886;14.814;2022-07-19T03:53:30;4.33;;;3.63;;
6053;SDS011;3055;50.886;14.814;2022-07-19T03:56:00;7.80;;;3.37;;
6053;SDS011;3055;50.886;14.814;2022-07-19T03:58:27;4.87;;;3.50;;
6053;SDS011;3055;50.886;14.814;2022-07-19T04:00:54;3.47;;;3.10;;
6053;SDS011;3055;50.886;14.814;2022-07-19T04:03:21;5.30;;;3.53;;
6053;SDS011;3055;50.886;14.814;2022-07-19T04:05:48;4.63;;;3.60;;
6053;SDS011;3055;50.886;14.814;2022-07-19T04:08:15;3.47;;;3.00;;
6053;SDS011;3055;50.886;14.814;2022-07-19T04:10:42;6.13;;;3.30;;
6053;SDS011;3055;50.886;14.814;2022-07-19T04:13:10;7.97;;;2.87;;
6053;SDS011;3055;50.886;14.814;2022-07-19T04:15:37;3.47;;;3.17;;
6053;SDS011;3055;50.886;14.814;2022-07-19T04:18:04;4.87;;;3.47;;
6053;SDS011;3055;50.886;14.814;2022-07-19T04:20:31;6.53;;;3.40;;
6053;SDS011;3055;50.886;14.814;2022-07-19T04:22:58;4.20;;;3.23;;
6053;SDS011;3055;50.886;14.814;2022-07-19T04:25:25;4.00;;;3.00;;
6053;SDS011;3055;50.886;14.814;2022-07-19T04:27:52;3.73;;;3.30;;
6053;SDS011;3055;50.886;14.814;2022-07-19T04:30:20;3.70;;;2.97;;
6053;SDS011;3055;50.886;14.814;2022-07-19T04:32:47;3.27;;;2.97;;
6053;SDS011;3055;50.886;14.814;2022-07-19T04:35:14;3.33;;;3.03;;
6053;SDS011;3055;50.886;14.814;2022-07-19T04:37:42;4.17;;;2.70;;
6053;SDS011;3055;50.886;14.814;2022-07-19T04:40:09;3.20;;;2.77;;
6053;SDS011;3055;50.886;14.814;2022-07-19T04:42:36;4.23;;;3.10;;
6053;SDS011;3055;50.886;14.814;2022-07-19T04:45:04;4.80;;;3.03;;
6053;SDS011;3055;50.886;14.814;2022-07-19T04:47:33;5.10;;;3.13;;
6053;SDS011;3055;50.886;14.814;2022-07-19T04:50:00;6.03;;;3.00;;
6053;SDS011;3055;50.886;14.814;2022-07-19T04:52:27;3.13;;;2.60;;
6053;SDS011;3055;50.886;14.814;2022-07-19T04:54:54;8.20;;;3.20;;
6053;SDS011;3055;50.886;14.814;2022-07-19T04:57:21;8.90;;;3.90;;
6053;SDS011;3055;50.886;14.814;2022-07-19T04:59:48;4.53;;;3.43;;
6053;SDS011;3055;50.886;14.814;2022-07-19T05:02:15;5.20;;;3.87;;
6053;SDS011;3055;50.886;14.814;2022-07-19T05:04:43;8.17;;;4.37;;
6053;SDS011;3055;50.886;14.814;2022-07-19T05:07:13;9.93;;;4.63;;
6053;SDS011;3055;50.886;14.814;2022-07-19T05:09:40;8.57;;;5.20;;
6053;SDS011;3055;50.886;14.814;2022-07-19T05:12:07;6.30;;;4.30;;
6053;SDS011;3055;50.886;14.814;2022-07-19T05:14:34;11.53;;;4.37;;
6053;SDS011;3055;50.886;14.814;2022-07-19T05:17:01;7.63;;;4.60;;
6053;SDS011;3055;50.886;14.814;2022-07-19T05:19:28;6.50;;;4.80;;
6053;SDS011;3055;50.886;14.814;2022-07-19T05:21:56;13.67;;;5.13;;
6053;SDS011;3055;50.886;14.814;2022-07-19T05:24:23;5.17;;;4.27;;
6053;SDS011;3055;50.886;14.814;2022-07-19T05:26:50;7.83;;;4.43;;
6053;SDS011;3055;50.886;14.814;2022-07-19T05:29:17;7.20;;;5.00;;
6053;SDS011;3055;50.886;14.814;2022-07-19T05:31:44;6.37;;;4.07;;
6053;SDS011;3055;50.886;14.814;2022-07-19T05:34:11;7.27;;;3.90;;
6053;SDS011;3055;50.886;14.814;2022-07-19T05:36:38;4.53;;;3.13;;
6053;SDS011;3055;50.886;14.814;2022-07-19T05:39:07;6.10;;;4.07;;
6053;SDS011;3055;50.886;14.814;2022-07-19T05:41:34;7.13;;;3.50;;
6053;SDS011;3055;50.886;14.814;2022-07-19T05:44:01;4.87;;;3.63;;
6053;SDS011;3055;50.886;14.814;2022-07-19T05:46:28;4.67;;;3.17;;
6053;SDS011;3055;50.886;14.814;2022-07-19T05:48:55;3.40;;;2.50;;
6053;SDS011;3055;50.886;14.814;2022-07-19T05:51:22;5.17;;;3.23;;
6053;SDS011;3055;50.886;14.814;2022-07-19T05:53:49;4.13;;;2.37;;
6053;SDS011;3055;50.886;14.814;2022-07-19T05:56:17;4.93;;;2.50;;
6053;SDS011;3055;50.886;14.814;2022-07-19T05:58:44;4.70;;;2.70;;
6053;SDS011;3055;50.886;14.814;2022-07-19T06:01:11;4.10;;;2.63;;
6053;SDS011;3055;50.886;14.814;2022-07-19T06:03:44;5.03;;;2.67;;
6053;SDS011;3055;50.886;14.814;2022-07-19T06:06:13;3.07;;;2.07;;
6053;SDS011;3055;50.886;14.814;2022-07-19T06:08:41;2.77;;;2.23;;
6053;SDS011;3055;50.886;14.814;2022-07-19T06:11:07;3.80;;;2.00;;
6053;SDS011;3055;50.886;14.814;2022-07-19T06:13:36;3.23;;;1.57;;
6053;SDS011;3055;50.886;14.814;2022-07-19T06:16:03;3.73;;;1.57;;
6053;SDS011;3055;50.886;14.814;2022-07-19T06:18:31;3.13;;;1.93;;
6053;SDS011;3055;50.886;14.814;2022-07-19T06:21:00;2.90;;;1.70;;
6053;SDS011;3055;50.886;14.814;2022-07-19T06:23:27;5.87;;;1.47;;
6053;SDS011;3055;50.886;14.814;2022-07-19T06:25:54;2.93;;;1.93;;
6053;SDS011;3055;50.886;14.814;2022-07-19T06:28:21;3.10;;;1.70;;
6053;SDS011;3055;50.886;14.814;2022-07-19T06:30:50;3.80;;;1.60;;
6053;SDS011;3055;50.886;14.814;2022-07-19T06:33:17;5.53;;;1.57;;
6053;SDS011;3055;50.886;14.814;2022-07-19T06:35:44;6.20;;;1.67;;
6053;SDS011;3055;50.886;14.814;2022-07-19T06:38:11;4.67;;;2.10;;
6053;SDS011;3055;50.886;14.814;2022-07-19T06:40:39;2.57;;;1.70;;
6053;SDS011;3055;50.886;14.814;2022-07-19T06:43:06;3.40;;;1.50;;
6053;SDS011;3055;50.886;14.814;2022-07-19T06:45:33;2.07;;;1.53;;
6053;SDS011;3055;50.886;14.814;2022-07-19T06:48:01;3.63;;;1.43;;
6053;SDS011;3055;50.886;14.814;2022-07-19T06:50:28;4.77;;;1.90;;
6053;SDS011;3055;50.886;14.814;2022-07-19T06:52:55;1.80;;;1.70;;
6053;SDS011;3055;50.886;14.814;2022-07-19T06:55:22;2.97;;;1.50;;
6053;SDS011;3055;50.886;14.814;2022-07-19T06:57:49;2.23;;;1.63;;
6053;SDS011;3055;50.886;14.814;2022-07-19T07:00:16;4.17;;;1.40;;
6053;SDS011;3055;50.886;14.814;2022-07-19T07:02:43;4.37;;;1.73;;
6053;SDS011;3055;50.886;14.814;2022-07-19T07:05:12;2.27;;;1.50;;
6053;SDS011;3055;50.886;14.814;2022-07-19T07:07:39;2.57;;;1.73;;
6053;SDS011;3055;50.886;14.814;2022-07-19T07:10:07;3.07;;;1.60;;
6053;SDS011;3055;50.886;14.814;2022-07-19T07:12:35;2.77;;;1.40;;
6053;SDS011;3055;50.886;14.814;2022-07-19T07:15:03;2.63;;;1.60;;
6053;SDS011;3055;50.886;14.814;2022-07-19T07:17:31;1.67;;;1.33;;
6053;SDS011;3055;50.886;14.814;2022-07-19T07:19:58;2.67;;;1.50;;
6053;SDS011;3055;50.886;14.814;2022-07-19T07:22:26;2.90;;;1.50;;
6053;SDS011;3055;50.886;14.814;2022-07-19T07:24:53;3.67;;;1.53;;
6053;SDS011;3055;50.886;14.814;2022-07-19T07:27:20;6.03;;;1.77;;
6053;SDS011;3055;50.886;14.814;2022-07-19T07:29:47;3.80;;;1.40;;
6053;SDS011;3055;50.886;14.814;2022-07-19T07:32:14;2.53;;;1.43;;
6053;SDS011;3055;50.886;14.814;2022-07-19T07:34:41;1.57;;;1.37;;
6053;SDS011;3055;50.886;14.814;2022-07-19T07:37:09;2.43;;;1.40;;
6053;SDS011;3055;50.886;14.814;2022-07-19T07:39:37;2.87;;;1.70;;
6053;SDS011;3055;50.886;14.814;2022-07-19T07:42:04;4.50;;;1.47;;
6053;SDS011;3055;50.886;14.814;2022-07-19T07:44:31;3.67;;;1.60;;
6053;SDS011;3055;50.886;14.814;2022-07-19T07:46:58;4.43;;;1.10;;
6053;SDS011;3055;50.886;14.814;2022-07-19T07:49:25;3.33;;;1.60;;
6053;SDS011;3055;50.886;14.814;2022-07-19T07:51:52;2.23;;;1.40;;
6053;SDS011;3055;50.886;14.814;2022-07-19T07:54:19;3.93;;;2.13;;
6053;SDS011;3055;50.886;14.814;2022-07-19T07:56:47;4.53;;;1.73;;
6053;SDS011;3055;50.886;14.814;2022-07-19T07:59:14;4.63;;;1.27;;
6053;SDS011;3055;50.886;14.814;2022-07-19T08:01:41;4.10;;;1.50;;
6053;SDS011;3055;50.886;14.814;2022-07-19T08:04:09;2.83;;;1.60;;
6053;SDS011;3055;50.886;14.814;2022-07-19T08:06:36;3.03;;;1.40;;
6053;SDS011;3055;50.886;14.814;2022-07-19T08:09:03;3.20;;;1.40;;
6053;SDS011;3055;50.886;14.814;2022-07-19T08:11:31;4.70;;;2.00;;
6053;SDS011;3055;50.886;14.814;2022-07-19T08:13:59;2.63;;;1.50;;
6053;SDS011;3055;50.886;14.814;2022-07-19T08:16:26;3.87;;;1.70;;
6053;SDS011;3055;50.886;14.814;2022-07-19T08:18:53;4.10;;;1.63;;
6053;SDS011;3055;50.886;14.814;2022-07-19T08:21:20;6.40;;;2.20;;
6053;SDS011;3055;50.886;14.814;2022-07-19T08:23:47;3.00;;;1.60;;
6053;SDS011;3055;50.886;14.814;2022-07-19T08:26:14;2.23;;;1.50;;
6053;SDS011;3055;50.886;14.814;2022-07-19T08:28:41;2.17;;;1.50;;
6053;SDS011;3055;50.886;14.814;2022-07-19T08:31:09;3.60;;;1.73;;
6053;SDS011;3055;50.886;14.814;2022-07-19T08:33:37;1.70;;;1.30;;
6053;SDS011;3055;50.886;14.814;2022-07-19T08:36:05;2.67;;;1.60;;
6053;SDS011;3055;50.886;14.814;2022-07-19T08:38:34;3.93;;;2.00;;
6053;SDS011;3055;50.886;14.814;2022-07-19T08:41:02;2.90;;;1.40;;
6053;SDS011;3055;50.886;14.814;2022-07-19T08:43:30;4.30;;;1.70;;
6053;SDS011;3055;50.886;14.814;2022-07-19T08:45:57;2.70;;;1.50;;
6053;SDS011;3055;50.886;14.814;2022-07-19T08:48:29;2.13;;;1.40;;
6053;SDS011;3055;50.886;14.814;2022-07-19T08:50:59;3.37;;;1.40;;
6053;SDS011;3055;50.886;14.814;2022-07-19T08:53:28;5.37;;;1.60;;
6053;SDS011;3055;50.886;14.814;2022-07-19T08:55:56;5.53;;;1.80;;
6053;SDS011;3055;50.886;14.814;2022-07-19T08:58:24;4.87;;;1.60;;
6053;SDS011;3055;50.886;14.814;2022-07-19T09:00:50;3.27;;;1.60;;
6053;SDS011;3055;50.886;14.814;2022-07-19T09:03:17;3.63;;;1.30;;
6053;SDS011;3055;50.886;14.814;2022-07-19T09:05:46;2.30;;;1.50;;
6053;SDS011;3055;50.886;14.814;2022-07-19T09:08:14;4.57;;;1.60;;
6053;SDS011;3055;50.886;14.814;2022-07-19T09:10:43;4.17;;;1.40;;
6053;SDS011;3055;50.886;14.814;2022-07-19T09:13:32;6.20;;;1.50;;
6053;SDS011;3055;50.886;14.814;2022-07-19T09:15:59;2.47;;;1.53;;
6053;SDS011;3055;50.886;14.814;2022-07-19T09:18:26;2.70;;;1.67;;
6053;SDS011;3055;50.886;14.814;2022-07-19T09:20:57;4.30;;;1.70;;
6053;SDS011;3055;50.886;14.814;2022-07-19T09:23:25;6.10;;;1.40;;
6053;SDS011;3055;50.886;14.814;2022-07-19T09:25:53;3.40;;;1.13;;
6053;SDS011;3055;50.886;14.814;2022-07-19T09:28:21;2.13;;;1.60;;
6053;SDS011;3055;50.886;14.814;2022-07-19T09:30:50;3.20;;;1.77;;
6053;SDS011;3055;50.886;14.814;2022-07-19T09:33:20;2.30;;;1.37;;
6053;SDS011;3055;50.886;14.814;2022-07-19T09:35:48;4.27;;;1.40;;
6053;SDS011;3055;50.886;14.814;2022-07-19T09:38:22;4.53;;;1.43;;
6053;SDS011;3055;50.886;14.814;2022-07-19T09:40:51;3.13;;;1.60;;
6053;SDS011;3055;50.886;14.814;2022-07-19T09:43:20;4.43;;;1.77;;
6053;SDS011;3055;50.886;14.814;2022-07-19T09:45:50;3.57;;;1.50;;
6053;SDS011;3055;50.886;14.814;2022-07-19T09:48:18;2.63;;;1.40;;
6053;SDS011;3055;50.886;14.814;2022-07-19T09:50:45;2.23;;;1.40;;
6053;SDS011;3055;50.886;14.814;2022-07-19T09:53:13;4.53;;;1.73;;
6053;SDS011;3055;50.886;14.814;2022-07-19T09:55:44;4.10;;;1.80;;
6053;SDS011;3055;50.886;14.814;2022-07-19T09:58:13;5.33;;;1.70;;
6053;SDS011;3055;50.886;14.814;2022-07-19T10:00:41;2.30;;;1.43;;
6053;SDS011;3055;50.886;14.814;2022-07-19T10:03:09;3.43;;;1.53;;
6053;SDS011;3055;50.886;14.814;2022-07-19T10:05:37;2.03;;;1.47;;
6053;SDS011;3055;50.886;14.814;2022-07-19T10:08:05;3.73;;;1.53;;
6053;SDS011;3055;50.886;14.814;2022-07-19T10:10:32;4.30;;;1.47;;
6053;SDS011;3055;50.886;14.814;2022-07-19T10:13:00;3.30;;;1.70;;
6053;SDS011;3055;50.886;14.814;2022-07-19T10:15:31;3.20;;;1.70;;
6053;SDS011;3055;50.886;14.814;2022-07-19T10:18:04;4.20;;;1.63;;
6053;SDS011;3055;50.886;14.814;2022-07-19T10:20:36;3.33;;;1.60;;
6053;SDS011;3055;50.886;14.814;2022-07-19T10:23:04;4.73;;;1.50;;
6053;SDS011;3055;50.886;14.814;2022-07-19T10:25:38;2.67;;;1.70;;
6053;SDS011;3055;50.886;14.814;2022-07-19T10:30:57;4.00;;;1.50;;
6053;SDS011;3055;50.886;14.814;2022-07-19T10:33:26;2.38;;;1.50;;
6053;SDS011;3055;50.886;14.814;2022-07-19T10:35:57;4.03;;;1.67;;
6053;SDS011;3055;50.886;14.814;2022-07-19T10:48:00;2.67;;;1.70;;
6053;SDS011;3055;50.886;14.814;2022-07-19T10:50:44;2.22;;;1.40;;
6053;SDS011;3055;50.886;14.814;2022-07-19T10:56:34;2.22;;;1.67;;
6053;SDS011;3055;50.886;14.814;2022-07-19T10:59:03;5.10;;;1.77;;
6053;SDS011;3055;50.886;14.814;2022-07-19T11:01:34;2.65;;;1.65;;
6053;SDS011;3055;50.886;14.814;2022-07-19T11:06:52;3.08;;;1.60;;
6053;SDS011;3055;50.886;14.814;2022-07-19T11:09:47;1.50;;;1.30;;
6053;SDS011;3055;50.886;14.814;2022-07-19T11:12:23;3.20;;;1.50;;
6053;SDS011;3055;50.886;14.814;2022-07-19T11:14:54;3.72;;;1.67;;
6053;SDS011;3055;50.886;14.814;2022-07-19T11:17:23;2.85;;;1.88;;
6053;SDS011;3055;50.886;14.814;2022-07-19T11:19:57;4.53;;;1.70;;
6053;SDS011;3055;50.886;14.814;2022-07-19T11:22:25;2.58;;;1.77;;
6053;SDS011;3055;50.886;14.814;2022-07-19T11:24:58;2.25;;;1.40;;
6053;SDS011;3055;50.886;14.814;2022-07-19T11:27:25;3.05;;;1.58;;
6053;SDS011;3055;50.886;14.814;2022-07-19T11:29:52;1.40;;;1.30;;
6053;SDS011;3055;50.886;14.814;2022-07-19T11:32:19;4.00;;;1.83;;
6053;SDS011;3055;50.886;14.814;2022-07-19T11:34:53;2.83;;;1.60;;
6053;SDS011;3055;50.886;14.814;2022-07-19T11:37:25;8.18;;;2.28;;
6053;SDS011;3055;50.886;14.814;2022-07-19T11:39:52;3.00;;;1.40;;
6053;SDS011;3055;50.886;14.814;2022-07-19T11:42:26;6.45;;;1.58;;
6053;SDS011;3055;50.886;14.814;2022-07-19T11:44:58;4.60;;;1.35;;
6053;SDS011;3055;50.886;14.814;2022-07-19T11:47:25;5.13;;;1.50;;
6053;SDS011;3055;50.886;14.814;2022-07-19T11:49:53;3.60;;;1.55;;
6053;SDS011;3055;50.886;14.814;2022-07-19T11:52:29;5.40;;;1.70;;
6053;SDS011;3055;50.886;14.814;2022-07-19T11:55:08;2.13;;;1.10;;
6053;SDS011;3055;50.886;14.814;2022-07-19T11:57:35;3.35;;;1.58;;
6053;SDS011;3055;50.886;14.814;2022-07-19T12:00:02;3.03;;;1.60;;
6053;SDS011;3055;50.886;14.814;2022-07-19T12:05:17;2.90;;;1.50;;
6053;SDS011;3055;50.886;14.814;2022-07-19T12:07:45;3.47;;;1.60;;
6053;SDS011;3055;50.886;14.814;2022-07-19T12:13:06;5.70;;;1.50;;
6053;SDS011;3055;50.886;14.814;2022-07-19T12:15:44;2.70;;;1.30;;
6053;SDS011;3055;50.886;14.814;2022-07-19T12:18:12;2.78;;;1.65;;
6053;SDS011;3055;50.886;14.814;2022-07-19T12:20:41;2.03;;;1.55;;
6053;SDS011;3055;50.886;14.814;2022-07-19T12:23:12;3.20;;;1.85;;
6053;SDS011;3055;50.886;14.814;2022-07-19T12:25:40;2.60;;;1.80;;
6053;SDS011;3055;50.886;14.814;2022-07-19T12:28:07;1.85;;;1.40;;
6053;SDS011;3055;50.886;14.814;2022-07-19T12:30:35;3.15;;;1.60;;
6053;SDS011;3055;50.886;14.814;2022-07-19T12:33:06;1.65;;;1.45;;
6053;SDS011;3055;50.886;14.814;2022-07-19T12:35:42;3.53;;;1.80;;
6053;SDS011;3055;50.886;14.814;2022-07-19T12:38:10;2.50;;;1.70;;
6053;SDS011;3055;50.886;14.814;2022-07-19T12:40:38;3.20;;;1.58;;
6053;SDS011;3055;50.886;14.814;2022-07-19T12:43:06;5.00;;;1.48;;
6053;SDS011;3055;50.886;14.814;2022-07-19T12:45:39;4.68;;;1.60;;
6053;SDS011;3055;50.886;14.814;2022-07-19T12:48:09;3.67;;;1.73;;
6053;SDS011;3055;50.886;14.814;2022-07-19T12:50:37;5.20;;;1.73;;
6053;SDS011;3055;50.886;14.814;2022-07-19T12:53:08;4.63;;;1.83;;
6053;SDS011;3055;50.886;14.814;2022-07-19T12:55:36;4.38;;;1.70;;
6053;SDS011;3055;50.886;14.814;2022-07-19T12:58:05;2.40;;;1.63;;
6053;SDS011;3055;50.886;14.814;2022-07-19T13:00:35;3.80;;;1.67;;
6053;SDS011;3055;50.886;14.814;2022-07-19T13:03:04;3.92;;;1.98;;
6053;SDS011;3055;50.886;14.814;2022-07-19T13:05:32;2.17;;;1.50;;
6053;SDS011;3055;50.886;14.814;2022-07-19T13:08:00;4.43;;;1.77;;
6053;SDS011;3055;50.886;14.814;2022-07-19T13:10:29;3.97;;;1.77;;
6053;SDS011;3055;50.886;14.814;2022-07-19T13:12:56;3.20;;;1.50;;
6053;SDS011;3055;50.886;14.814;2022-07-19T13:15:23;2.28;;;1.45;;
6053;SDS011;3055;50.886;14.814;2022-07-19T13:17:50;5.20;;;1.90;;
6053;SDS011;3055;50.886;14.814;2022-07-19T13:20:17;2.25;;;1.63;;
6053;SDS011;3055;50.886;14.814;2022-07-19T13:22:44;3.47;;;1.85;;
6053;SDS011;3055;50.886;14.814;2022-07-19T13:25:11;2.10;;;1.60;;
6053;SDS011;3055;50.886;14.814;2022-07-19T13:27:40;2.92;;;1.60;;
6053;SDS011;3055;50.886;14.814;2022-07-19T13:30:07;3.28;;;1.58;;
6053;SDS011;3055;50.886;14.814;2022-07-19T13:32:34;2.90;;;1.60;;
6053;SDS011;3055;50.886;14.814;2022-07-19T13:35:01;3.63;;;2.00;;
6053;SDS011;3055;50.886;14.814;2022-07-19T13:37:29;3.72;;;1.75;;
6053;SDS011;3055;50.886;14.814;2022-07-19T13:39:56;1.92;;;1.58;;
6053;SDS011;3055;50.886;14.814;2022-07-19T13:42:23;3.17;;;2.05;;
6053;SDS011;3055;50.886;14.814;2022-07-19T13:44:51;4.88;;;1.55;;
6053;SDS011;3055;50.886;14.814;2022-07-19T13:47:18;3.28;;;1.73;;
6053;SDS011;3055;50.886;14.814;2022-07-19T13:49:45;3.53;;;1.92;;
6053;SDS011;3055;50.886;14.814;2022-07-19T13:52:12;2.28;;;1.50;;
6053;SDS011;3055;50.886;14.814;2022-07-19T13:54:39;2.50;;;1.70;;
6053;SDS011;3055;50.886;14.814;2022-07-19T13:57:06;2.45;;;1.83;;
6053;SDS011;3055;50.886;14.814;2022-07-19T13:59:33;2.22;;;1.58;;
6053;SDS011;3055;50.886;14.814;2022-07-19T14:02:01;3.08;;;1.92;;
6053;SDS011;3055;50.886;14.814;2022-07-19T14:04:28;2.45;;;1.70;;
6053;SDS011;3055;50.886;14.814;2022-07-19T14:06:55;3.92;;;1.73;;
6053;SDS011;3055;50.886;14.814;2022-07-19T14:09:23;3.53;;;1.67;;
6053;SDS011;3055;50.886;14.814;2022-07-19T14:11:50;1.63;;;1.52;;
6053;SDS011;3055;50.886;14.814;2022-07-19T14:14:17;2.15;;;1.45;;
6053;SDS011;3055;50.886;14.814;2022-07-19T14:16:44;5.15;;;1.67;;
6053;SDS011;3055;50.886;14.814;2022-07-19T14:19:13;2.25;;;1.50;;
6053;SDS011;3055;50.886;14.814;2022-07-19T14:21:40;4.30;;;1.55;;
6053;SDS011;3055;50.886;14.814;2022-07-19T14:24:07;2.60;;;1.60;;
6053;SDS011;3055;50.886;14.814;2022-07-19T14:26:34;2.08;;;1.60;;
6053;SDS011;3055;50.886;14.814;2022-07-19T14:29:02;2.65;;;1.70;;
6053;SDS011;3055;50.886;14.814;2022-07-19T14:31:29;2.47;;;1.88;;
6053;SDS011;3055;50.886;14.814;2022-07-19T14:33:56;5.53;;;1.80;;
6053;SDS011;3055;50.886;14.814;2022-07-19T14:36:25;5.15;;;1.80;;
6053;SDS011;3055;50.886;14.814;2022-07-19T14:38:52;3.15;;;2.03;;
6053;SDS011;3055;50.886;14.814;2022-07-19T14:41:19;2.22;;;1.98;;
6053;SDS011;3055;50.886;14.814;2022-07-19T14:43:45;3.65;;;1.92;;
6053;SDS011;3055;50.886;14.814;2022-07-19T14:46:12;2.35;;;1.80;;
6053;SDS011;3055;50.886;14.814;2022-07-19T14:48:39;3.17;;;1.90;;
6053;SDS011;3055;50.886;14.814;2022-07-19T14:51:06;3.13;;;1.52;;
6053;SDS011;3055;50.886;14.814;2022-07-19T14:53:35;4.22;;;1.77;;
6053;SDS011;3055;50.886;14.814;2022-07-19T14:56:01;2.53;;;1.77;;
6053;SDS011;3055;50.886;14.814;2022-07-19T14:58:29;3.97;;;1.92;;
6053;SDS011;3055;50.886;14.814;2022-07-19T15:00:56;3.15;;;2.03;;
6053;SDS011;3055;50.886;14.814;2022-07-19T15:03:23;4.30;;;1.65;;
6053;SDS011;3055;50.886;14.814;2022-07-19T15:05:50;3.78;;;2.00;;
6053;SDS011;3055;50.886;14.814;2022-07-19T15:08:16;3.88;;;2.10;;
6053;SDS011;3055;50.886;14.814;2022-07-19T15:10:45;2.80;;;1.95;;
6053;SDS011;3055;50.886;14.814;2022-07-19T15:13:12;3.15;;;1.65;;
6053;SDS011;3055;50.886;14.814;2022-07-19T15:15:39;3.78;;;2.00;;
6053;SDS011;3055;50.886;14.814;2022-07-19T15:18:06;3.75;;;1.88;;
6053;SDS011;3055;50.886;14.814;2022-07-19T15:20:33;3.83;;;2.00;;
6053;SDS011;3055;50.886;14.814;2022-07-19T15:23:00;3.15;;;1.92;;
6053;SDS011;3055;50.886;14.814;2022-07-19T15:25:27;3.53;;;1.73;;
6053;SDS011;3055;50.886;14.814;2022-07-19T15:27:55;3.55;;;1.95;;
6053;SDS011;3055;50.886;14.814;2022-07-19T15:30:22;2.35;;;1.90;;